createdAt,value
2022-09-07T00:00:23.643Z,18.92
2022-09-07T00:15:23.564Z,18.77
2022-09-07T00:30:24.450Z,18.93
2022-09-07T00:45:23.733Z,18.70
2022-09-07T01:00:23.537Z,18.55
2022-09-07T01:15:23.612Z,18.42
2022-09-07T01:30:23.573Z,18.10
2022-09-07T01:45:23.664Z,18.38
2022-09-07T02:00:23.680Z,18.63
2022-09-07T02:15:23.753Z,18.35
2022-09-07T02:30:23.637Z,18.25
2022-09-07T02:45:23.719Z,18.35
2022-09-07T03:00:32.105Z,18.27
2022-09-07T03:15:23.831Z,18.17
2022-09-07T03:30:23.959Z,18.27
2022-09-07T03:45:23.842Z,18.17
2022-09-07T04:00:29.688Z,17.85
2022-09-07T04:15:23.989Z,17.80
2022-09-07T04:30:23.830Z,17.73
2022-09-07T04:45:23.962Z,17.67
2022-09-07T05:00:23.876Z,17.00
2022-09-07T05:15:23.886Z,17.60
2022-09-07T05:31:19.062Z,17.47
2022-09-07T05:45:23.952Z,17.52
2022-09-07T06:00:27.211Z,17.65
2022-09-07T06:15:24.063Z,17.80
2022-09-07T06:30:26.182Z,17.92
2022-09-07T06:45:24.063Z,18.22
2022-09-07T07:00:30.874Z,20.27
2022-09-07T07:15:24.143Z,21.45
2022-09-07T07:30:25.056Z,22.42
2022-09-07T07:45:54.801Z,23.42
2022-09-07T08:00:50.733Z,22.83
2022-09-07T08:15:24.310Z,22.92
2022-09-07T08:30:24.465Z,22.63
2022-09-07T08:45:33.476Z,24.20
2022-09-07T09:00:35.794Z,23.62
2022-09-07T09:15:23.563Z,23.73
2022-09-07T09:30:24.400Z,24.27
2022-09-07T09:45:23.655Z,24.03
2022-09-07T10:00:29.960Z,24.55
2022-09-07T10:15:23.806Z,24.95
2022-09-07T10:30:23.628Z,24.90
2022-09-07T10:45:23.657Z,25.25
2022-09-07T11:00:27.501Z,25.75
2022-09-07T11:15:23.571Z,25.95
2022-09-07T11:30:24.048Z,26.40
2022-09-07T11:45:23.530Z,26.70
2022-09-07T12:00:45.957Z,27.30
2022-09-07T12:15:23.565Z,27.02
2022-09-07T12:30:32.241Z,27.15
2022-09-07T12:45:23.623Z,27.38
2022-09-07T13:00:25.054Z,27.70
2022-09-07T13:15:24.333Z,27.70
2022-09-07T13:30:24.962Z,27.57
2022-09-07T13:45:23.785Z,27.85
2022-09-07T14:00:55.517Z,28.08
2022-09-07T14:15:24.143Z,27.98
2022-09-07T14:30:23.872Z,28.20
2022-09-07T14:45:23.946Z,28.08
2022-09-07T15:01:37.716Z,28.05
2022-09-07T15:15:23.899Z,27.90
2022-09-07T15:30:27.518Z,27.40
2022-09-07T15:45:23.976Z,27.47
2022-09-07T16:00:29.093Z,27.58
2022-09-07T16:15:27.032Z,27.77
2022-09-07T16:30:24.420Z,27.60
2022-09-07T16:46:04.663Z,27.23
2022-09-07T17:00:25.201Z,26.55
2022-09-07T17:15:24.247Z,26.10
2022-09-07T17:30:24.795Z,25.80
2022-09-07T17:45:24.303Z,25.15
2022-09-07T18:00:25.060Z,24.20
2022-09-07T18:15:33.202Z,23.97
2022-09-07T18:30:36.174Z,23.80
2022-09-07T18:45:33.457Z,23.53
2022-09-07T19:00:34.357Z,22.90
2022-09-07T19:15:23.350Z,23.12
2022-09-07T19:30:23.691Z,22.97
2022-09-07T19:45:23.345Z,22.58
2022-09-07T20:00:24.778Z,22.30
2022-09-07T20:15:23.556Z,22.23
2022-09-07T20:30:23.453Z,21.88
2022-09-07T20:45:23.433Z,21.75
2022-09-07T21:00:57.220Z,21.72
2022-09-07T21:15:23.551Z,21.38
2022-09-07T21:30:24.326Z,21.27
2022-09-07T21:45:24.093Z,21.25
2022-09-07T22:00:35.714Z,22.00
2022-09-07T22:15:23.787Z,20.85
2022-09-07T22:30:25.181Z,21.10
2022-09-07T22:45:23.643Z,20.90
2022-09-07T23:00:31.719Z,20.80
2022-09-07T23:15:23.792Z,20.60
2022-09-07T23:30:26.919Z,20.45
2022-09-07T23:45:23.701Z,20.38
